Accueil
METAR-TAF:

METAR-TAF

Aéroports :

Beauvechain, Belgique

Base aérienne de Beauvechain

latitude: 50-45N, longitude: 004-46E, altitude: 105 m

Observation

Le bulletin a été fait il y a 18 minutes, à 08:25 UTC
Vent 8 kt de ouest
Température 18°C
Humidité 68%
Pression 1019 hPa
Visibilité 10 km ou plus
Nuages épars à une hauteur de 21000 ft

METAR: EBBE 230825Z 26008KT 9999 SCT210 18/12 Q1019 BLU BLU

Heure: 10:43 (08:43 UTC)

Prévision

Le bulletin a été fait il y a 3 heures et 2 minutes, à 05:41 UTC
Prévision valable du 23 à 07 UTC au 23 à 16 UTC
Vent 8 kt de ouest
Visibilité 10 km ou plus
Nuages épars à une hauteur de 21000 ft
Evoluant progressivement
du 23 à 10 UTC au 23 à 12 UTC
Vent 12 kt de ouest/nord-ouest
Quelques nuages à une hauteur de 1500 ft
Nuages épars à une hauteur de 21000 ft

TAF: EBBE 230541Z 2307/2316 26008KT 9999 SCT210 BECMG 2310/2312 30012KT FEW015 SCT210

Observations et prévisions météorologiques de plus de 4000 aéroports (messages METAR et TAF).

Les stations disponibles sont représentées par des disques jaunes et rouges sur la carte.

Passer la souris dessus pour voir le nom de la station.

Cliquer dessus pour voir les observations et prévisions météorologiques.

Pour changer de carte: cliquez sur les boutons verts avec une croix noire pour zoomer, sur le bouton vert avec un tiret pour effectuer un zoom arrière, ou sur les flèches vertes pour les cartes adjacentes.


METAR-TAF: